sensor_id;sensor_type;location;lat;lon;timestamp;pressure;altitude;pressure_sealevel;temperature;humidity
3544;BME280;1786;52.870;9.578;2023-06-26T00:01:03;100510.69;;;34.13;41.40
3544;BME280;1786;52.870;9.578;2023-06-26T00:03:32;100508.47;;;34.10;41.49
3544;BME280;1786;52.870;9.578;2023-06-26T00:05:59;100502.41;;;34.08;41.53
3544;BME280;1786;52.870;9.578;2023-06-26T00:08:28;100502.31;;;34.02;41.76
3544;BME280;1786;52.870;9.578;2023-06-26T00:10:54;100496.47;;;33.99;41.78
3544;BME280;1786;52.870;9.578;2023-06-26T00:13:22;100498.56;;;33.92;41.92
3544;BME280;1786;52.870;9.578;2023-06-26T00:15:50;100498.19;;;33.83;41.93
3544;BME280;1786;52.870;9.578;2023-06-26T00:18:17;100486.47;;;33.88;41.98
3544;BME280;1786;52.870;9.578;2023-06-26T00:20:43;100495.97;;;33.80;42.05
3544;BME280;1786;52.870;9.578;2023-06-26T00:23:11;100491.97;;;33.88;41.89
3544;BME280;1786;52.870;9.578;2023-06-26T00:25:39;100485.66;;;33.87;42.09
3544;BME280;1786;52.870;9.578;2023-06-26T00:28:06;100480.28;;;33.75;42.18
3544;BME280;1786;52.870;9.578;2023-06-26T00:30:32;100483.84;;;33.76;42.02
3544;BME280;1786;52.870;9.578;2023-06-26T00:32:59;100482.06;;;33.65;42.17
3544;BME280;1786;52.870;9.578;2023-06-26T00:35:26;100476.16;;;33.56;42.42
3544;BME280;1786;52.870;9.578;2023-06-26T00:37:52;100480.44;;;33.69;42.04
3544;BME280;1786;52.870;9.578;2023-06-26T00:40:19;100479.00;;;33.44;42.51
3544;BME280;1786;52.870;9.578;2023-06-26T00:42:45;100480.47;;;33.52;42.28
3544;BME280;1786;52.870;9.578;2023-06-26T00:45:13;100476.41;;;33.54;42.13
3544;BME280;1786;52.870;9.578;2023-06-26T00:47:41;100488.53;;;33.58;42.17
3544;BME280;1786;52.870;9.578;2023-06-26T00:50:08;100476.38;;;33.71;41.89
3544;BME280;1786;52.870;9.578;2023-06-26T00:52:35;100480.38;;;33.64;42.04
3544;BME280;1786;52.870;9.578;2023-06-26T00:55:02;100473.84;;;33.65;41.66
3544;BME280;1786;52.870;9.578;2023-06-26T00:57:30;100473.16;;;33.74;41.89
3544;BME280;1786;52.870;9.578;2023-06-26T00:59:59;100469.75;;;33.67;41.75
3544;BME280;1786;52.870;9.578;2023-06-26T01:02:28;100474.22;;;33.73;41.59
3544;BME280;1786;52.870;9.578;2023-06-26T01:05:01;100456.31;;;33.66;41.82
3544;BME280;1786;52.870;9.578;2023-06-26T01:07:34;100446.97;;;33.67;42.04
3544;BME280;1786;52.870;9.578;2023-06-26T01:10:06;100442.59;;;33.66;42.09
3544;BME280;1786;52.870;9.578;2023-06-26T01:12:33;100445.69;;;33.52;42.53
3544;BME280;1786;52.870;9.578;2023-06-26T01:15:00;100439.22;;;33.58;42.23
3544;BME280;1786;52.870;9.578;2023-06-26T01:17:27;100441.72;;;33.43;42.20
3544;BME280;1786;52.870;9.578;2023-06-26T01:20:03;100440.53;;;33.39;42.58
3544;BME280;1786;52.870;9.578;2023-06-26T01:23:03;100442.53;;;33.44;42.28
3544;BME280;1786;52.870;9.578;2023-06-26T01:28:10;100433.59;;;33.31;42.29
3544;BME280;1786;52.870;9.578;2023-06-26T01:30:42;100437.81;;;33.39;42.23
3544;BME280;1786;52.870;9.578;2023-06-26T01:33:12;100432.09;;;33.40;42.27
3544;BME280;1786;52.870;9.578;2023-06-26T01:35:39;100433.44;;;33.21;42.60
3544;BME280;1786;52.870;9.578;2023-06-26T01:38:20;100424.75;;;33.24;42.49
3544;BME280;1786;52.870;9.578;2023-06-26T01:40:47;100419.19;;;33.19;42.49
3544;BME280;1786;52.870;9.578;2023-06-26T01:46:25;100419.69;;;32.99;43.25
3544;BME280;1786;52.870;9.578;2023-06-26T01:49:02;100415.53;;;32.96;43.30
3544;BME280;1786;52.870;9.578;2023-06-26T01:51:41;100411.03;;;32.90;43.30
3544;BME280;1786;52.870;9.578;2023-06-26T01:54:10;100406.72;;;32.94;43.21
3544;BME280;1786;52.870;9.578;2023-06-26T01:56:41;100398.44;;;32.72;43.54
3544;BME280;1786;52.870;9.578;2023-06-26T01:59:09;100391.81;;;32.40;44.26
3544;BME280;1786;52.870;9.578;2023-06-26T02:01:36;100393.19;;;32.25;44.42
3544;BME280;1786;52.870;9.578;2023-06-26T02:04:03;100396.97;;;32.07;44.66
3544;BME280;1786;52.870;9.578;2023-06-26T02:06:30;100397.63;;;32.26;44.29
3544;BME280;1786;52.870;9.578;2023-06-26T02:08:58;100396.47;;;32.39;44.33
3544;BME280;1786;52.870;9.578;2023-06-26T02:11:24;100396.72;;;32.38;44.20
3544;BME280;1786;52.870;9.578;2023-06-26T02:13:52;100387.09;;;32.35;44.09
3544;BME280;1786;52.870;9.578;2023-06-26T02:16:18;100394.06;;;32.26;44.11
3544;BME280;1786;52.870;9.578;2023-06-26T02:18:45;100388.88;;;32.12;44.32
3544;BME280;1786;52.870;9.578;2023-06-26T02:21:13;100374.41;;;32.00;44.81
3544;BME280;1786;52.870;9.578;2023-06-26T02:23:39;100374.97;;;32.14;44.52
3544;BME280;1786;52.870;9.578;2023-06-26T02:26:06;100374.91;;;32.26;44.28
3544;BME280;1786;52.870;9.578;2023-06-26T02:28:33;100377.97;;;32.29;44.35
3544;BME280;1786;52.870;9.578;2023-06-26T02:31:00;100374.66;;;32.27;44.23
3544;BME280;1786;52.870;9.578;2023-06-26T02:33:27;100370.34;;;32.31;44.17
3544;BME280;1786;52.870;9.578;2023-06-26T02:35:54;100373.00;;;32.26;44.31
3544;BME280;1786;52.870;9.578;2023-06-26T02:38:21;100368.22;;;32.33;43.97
3544;BME280;1786;52.870;9.578;2023-06-26T02:40:47;100371.31;;;32.54;43.81
3544;BME280;1786;52.870;9.578;2023-06-26T02:43:15;100368.59;;;32.54;43.58
3544;BME280;1786;52.870;9.578;2023-06-26T02:45:43;100373.31;;;32.59;43.68
3544;BME280;1786;52.870;9.578;2023-06-26T02:48:10;100364.06;;;32.48;43.75
3544;BME280;1786;52.870;9.578;2023-06-26T02:50:43;100363.19;;;32.59;43.68
3544;BME280;1786;52.870;9.578;2023-06-26T02:53:14;100360.38;;;32.71;43.28
3544;BME280;1786;52.870;9.578;2023-06-26T02:55:43;100367.06;;;32.63;43.32
3544;BME280;1786;52.870;9.578;2023-06-26T02:58:10;100362.38;;;32.59;43.57
3544;BME280;1786;52.870;9.578;2023-06-26T03:00:38;100356.13;;;32.63;43.12
3544;BME280;1786;52.870;9.578;2023-06-26T03:03:10;100351.75;;;32.79;43.14
3544;BME280;1786;52.870;9.578;2023-06-26T03:05:37;100349.03;;;32.62;43.33
3544;BME280;1786;52.870;9.578;2023-06-26T03:08:04;100346.88;;;32.81;42.93
3544;BME280;1786;52.870;9.578;2023-06-26T03:10:32;100346.88;;;32.64;43.09
3544;BME280;1786;52.870;9.578;2023-06-26T03:12:59;100339.63;;;32.58;43.38
3544;BME280;1786;52.870;9.578;2023-06-26T03:15:26;100340.88;;;32.67;43.19
3544;BME280;1786;52.870;9.578;2023-06-26T03:17:53;100343.88;;;32.49;43.47
3544;BME280;1786;52.870;9.578;2023-06-26T03:20:24;100344.78;;;32.54;43.42
3544;BME280;1786;52.870;9.578;2023-06-26T03:22:56;100341.81;;;32.56;43.44
3544;BME280;1786;52.870;9.578;2023-06-26T03:25:23;100344.59;;;32.44;43.64
3544;BME280;1786;52.870;9.578;2023-06-26T03:27:57;100339.63;;;32.41;43.79
3544;BME280;1786;52.870;9.578;2023-06-26T03:30:25;100343.34;;;32.35;43.67
3544;BME280;1786;52.870;9.578;2023-06-26T03:32:54;100339.44;;;32.48;43.54
3544;BME280;1786;52.870;9.578;2023-06-26T03:35:22;100340.06;;;32.50;43.35
3544;BME280;1786;52.870;9.578;2023-06-26T03:37:49;100343.38;;;32.69;43.24
3544;BME280;1786;52.870;9.578;2023-06-26T03:40:16;100346.03;;;32.64;43.48
3544;BME280;1786;52.870;9.578;2023-06-26T03:42:43;100340.88;;;32.67;43.28
3544;BME280;1786;52.870;9.578;2023-06-26T03:45:10;100337.41;;;32.72;43.23
3544;BME280;1786;52.870;9.578;2023-06-26T03:47:37;100332.53;;;32.57;43.36
3544;BME280;1786;52.870;9.578;2023-06-26T03:50:05;100328.47;;;32.60;43.16
3544;BME280;1786;52.870;9.578;2023-06-26T03:52:32;100328.78;;;32.63;43.24
3544;BME280;1786;52.870;9.578;2023-06-26T03:54:58;100320.09;;;32.66;43.33
3544;BME280;1786;52.870;9.578;2023-06-26T03:57:25;100326.47;;;32.72;43.14
3544;BME280;1786;52.870;9.578;2023-06-26T03:59:52;100328.69;;;32.58;43.51
3544;BME280;1786;52.870;9.578;2023-06-26T04:02:21;100313.88;;;32.54;43.46
3544;BME280;1786;52.870;9.578;2023-06-26T04:04:47;100310.34;;;32.42;43.75
3544;BME280;1786;52.870;9.578;2023-06-26T04:07:14;100312.78;;;32.55;43.63
3544;BME280;1786;52.870;9.578;2023-06-26T04:09:41;100307.97;;;32.28;43.81
3544;BME280;1786;52.870;9.578;2023-06-26T04:12:08;100305.69;;;32.08;44.32
3544;BME280;1786;52.870;9.578;2023-06-26T04:14:34;100309.59;;;32.29;43.65
3544;BME280;1786;52.870;9.578;2023-06-26T04:17:01;100303.78;;;31.80;44.72
3544;BME280;1786;52.870;9.578;2023-06-26T04:19:29;100298.59;;;31.67;45.11
3544;BME280;1786;52.870;9.578;2023-06-26T04:21:56;100302.69;;;32.10;44.53
3544;BME280;1786;52.870;9.578;2023-06-26T04:24:23;100301.94;;;31.98;44.92
3544;BME280;1786;52.870;9.578;2023-06-26T04:26:50;100299.25;;;31.86;44.66
3544;BME280;1786;52.870;9.578;2023-06-26T04:29:17;100294.22;;;31.95;44.63
3544;BME280;1786;52.870;9.578;2023-06-26T04:31:44;100294.00;;;31.84;44.84
3544;BME280;1786;52.870;9.578;2023-06-26T04:34:13;100288.06;;;31.87;44.96
3544;BME280;1786;52.870;9.578;2023-06-26T04:36:40;100286.63;;;31.68;45.12
3544;BME280;1786;52.870;9.578;2023-06-26T04:39:06;100279.94;;;31.76;45.15
3544;BME280;1786;52.870;9.578;2023-06-26T04:41:33;100281.06;;;30.99;46.46
3544;BME280;1786;52.870;9.578;2023-06-26T04:44:00;100285.84;;;31.32;45.97
3544;BME280;1786;52.870;9.578;2023-06-26T04:46:26;100279.19;;;31.52;45.66
3544;BME280;1786;52.870;9.578;2023-06-26T04:48:54;100275.28;;;32.05;44.96
3544;BME280;1786;52.870;9.578;2023-06-26T04:51:21;100281.09;;;32.25;44.41
3544;BME280;1786;52.870;9.578;2023-06-26T04:53:47;100269.72;;;32.00;44.61
3544;BME280;1786;52.870;9.578;2023-06-26T04:56:14;100277.38;;;32.31;44.21
3544;BME280;1786;52.870;9.578;2023-06-26T04:58:40;100276.09;;;32.51;43.78
3544;BME280;1786;52.870;9.578;2023-06-26T05:01:07;100269.56;;;32.40;43.94
3544;BME280;1786;52.870;9.578;2023-06-26T05:03:34;100280.25;;;32.75;43.61
3544;BME280;1786;52.870;9.578;2023-06-26T05:06:02;100273.66;;;32.93;43.17
3544;BME280;1786;52.870;9.578;2023-06-26T05:08:35;100269.84;;;32.94;43.38
3544;BME280;1786;52.870;9.578;2023-06-26T05:11:02;100265.44;;;32.38;43.65
3544;BME280;1786;52.870;9.578;2023-06-26T05:13:29;100266.56;;;32.75;43.39
3544;BME280;1786;52.870;9.578;2023-06-26T05:15:55;100257.84;;;33.61;42.15
3544;BME280;1786;52.870;9.578;2023-06-26T05:18:22;100266.56;;;34.87;39.95
3544;BME280;1786;52.870;9.578;2023-06-26T05:20:49;100263.41;;;36.00;38.30
3544;BME280;1786;52.870;9.578;2023-06-26T05:23:16;100267.19;;;37.61;36.82
3544;BME280;1786;52.870;9.578;2023-06-26T05:25:43;100278.31;;;38.83;35.23
3544;BME280;1786;52.870;9.578;2023-06-26T05:28:10;100281.22;;;40.01;33.76
3544;BME280;1786;52.870;9.578;2023-06-26T05:30:39;100287.09;;;41.07;31.89
3544;BME280;1786;52.870;9.578;2023-06-26T05:33:06;100290.13;;;41.97;31.16
3544;BME280;1786;52.870;9.578;2023-06-26T05:35:36;100289.28;;;42.64;30.63
3544;BME280;1786;52.870;9.578;2023-06-26T05:38:03;100290.50;;;43.20;29.72
3544;BME280;1786;52.870;9.578;2023-06-26T05:40:29;100286.00;;;43.68;29.51
3544;BME280;1786;52.870;9.578;2023-06-26T05:42:56;100284.25;;;44.54;28.65
3544;BME280;1786;52.870;9.578;2023-06-26T05:45:23;100287.91;;;44.46;28.63
3544;BME280;1786;52.870;9.578;2023-06-26T05:47:50;100295.53;;;45.34;27.63
3544;BME280;1786;52.870;9.578;2023-06-26T05:50:17;100305.75;;;45.93;26.94
3544;BME280;1786;52.870;9.578;2023-06-26T05:52:44;100304.00;;;46.10;27.33
3544;BME280;1786;52.870;9.578;2023-06-26T05:55:12;100296.34;;;46.19;26.78
3544;BME280;1786;52.870;9.578;2023-06-26T05:57:40;100301.91;;;46.65;26.62
3544;BME280;1786;52.870;9.578;2023-06-26T06:00:07;100296.91;;;46.58;26.69
3544;BME280;1786;52.870;9.578;2023-06-26T06:02:42;100299.53;;;46.75;26.31
3544;BME280;1786;52.870;9.578;2023-06-26T06:05:09;100290.78;;;47.01;26.34
3544;BME280;1786;52.870;9.578;2023-06-26T06:07:36;100289.50;;;47.23;26.50
3544;BME280;1786;52.870;9.578;2023-06-26T06:10:03;100294.16;;;47.72;25.70
3544;BME280;1786;52.870;9.578;2023-06-26T06:12:30;100295.16;;;48.36;25.68
3544;BME280;1786;52.870;9.578;2023-06-26T06:14:57;100283.09;;;48.04;25.08
3544;BME280;1786;52.870;9.578;2023-06-26T06:17:24;100278.19;;;46.25;25.90
3544;BME280;1786;52.870;9.578;2023-06-26T06:19:51;100256.06;;;45.24;27.17
3544;BME280;1786;52.870;9.578;2023-06-26T06:22:17;100264.16;;;46.01;26.67
3544;BME280;1786;52.870;9.578;2023-06-26T06:24:44;100264.31;;;46.74;27.40
3544;BME280;1786;52.870;9.578;2023-06-26T06:27:11;100268.22;;;47.87;25.44
3544;BME280;1786;52.870;9.578;2023-06-26T06:29:38;100262.91;;;47.70;25.08
3544;BME280;1786;52.870;9.578;2023-06-26T06:32:05;100270.81;;;46.66;26.15
3544;BME280;1786;52.870;9.578;2023-06-26T06:34:32;100250.41;;;45.95;26.65
3544;BME280;1786;52.870;9.578;2023-06-26T06:36:58;100263.13;;;46.63;26.42
3544;BME280;1786;52.870;9.578;2023-06-26T06:39:25;100253.22;;;46.53;27.29
3544;BME280;1786;52.870;9.578;2023-06-26T06:41:52;100267.72;;;47.57;26.51
3544;BME280;1786;52.870;9.578;2023-06-26T06:44:20;100256.28;;;47.90;25.93
3544;BME280;1786;52.870;9.578;2023-06-26T06:46:48;100272.16;;;48.74;25.07
3544;BME280;1786;52.870;9.578;2023-06-26T06:49:15;100266.50;;;49.42;25.05
3544;BME280;1786;52.870;9.578;2023-06-26T06:51:41;100263.91;;;49.33;24.31
3544;BME280;1786;52.870;9.578;2023-06-26T06:54:08;100263.56;;;49.18;25.01
3544;BME280;1786;52.870;9.578;2023-06-26T06:56:35;100272.41;;;50.14;24.72
3544;BME280;1786;52.870;9.578;2023-06-26T06:59:02;100277.06;;;50.49;23.94
3544;BME280;1786;52.870;9.578;2023-06-26T07:01:28;100267.53;;;50.11;24.01
3544;BME280;1786;52.870;9.578;2023-06-26T07:03:55;100268.91;;;49.98;24.16
3544;BME280;1786;52.870;9.578;2023-06-26T07:06:22;100264.06;;;50.41;23.92
3544;BME280;1786;52.870;9.578;2023-06-26T07:08:48;100271.50;;;50.10;23.53
3544;BME280;1786;52.870;9.578;2023-06-26T07:11:16;100268.16;;;50.01;24.55
3544;BME280;1786;52.870;9.578;2023-06-26T07:13:42;100266.88;;;49.40;23.92
3544;BME280;1786;52.870;9.578;2023-06-26T07:16:11;100261.38;;;48.01;25.42
3544;BME280;1786;52.870;9.578;2023-06-26T07:18:38;100258.56;;;48.45;24.68
3544;BME280;1786;52.870;9.578;2023-06-26T07:21:06;100260.81;;;47.26;25.53
3544;BME280;1786;52.870;9.578;2023-06-26T07:23:32;100257.50;;;47.77;25.48
3544;BME280;1786;52.870;9.578;2023-06-26T07:25:59;100257.22;;;48.70;25.01
3544;BME280;1786;52.870;9.578;2023-06-26T07:28:26;100252.78;;;48.38;24.94
3544;BME280;1786;52.870;9.578;2023-06-26T07:30:54;100255.84;;;49.31;24.72
3544;BME280;1786;52.870;9.578;2023-06-26T07:33:20;100248.03;;;49.41;24.81
3544;BME280;1786;52.870;9.578;2023-06-26T07:35:47;100258.78;;;49.97;25.29
3544;BME280;1786;52.870;9.578;2023-06-26T07:38:14;100248.78;;;49.76;24.23
3544;BME280;1786;52.870;9.578;2023-06-26T07:40:41;100258.72;;;49.93;24.57
3544;BME280;1786;52.870;9.578;2023-06-26T07:43:08;100258.03;;;50.19;24.88
3544;BME280;1786;52.870;9.578;2023-06-26T07:45:34;100265.44;;;50.51;24.54
3544;BME280;1786;52.870;9.578;2023-06-26T07:48:01;100261.72;;;50.70;23.83
3544;BME280;1786;52.870;9.578;2023-06-26T07:50:28;100257.25;;;49.99;24.42
3544;BME280;1786;52.870;9.578;2023-06-26T07:52:55;100255.28;;;48.90;25.14
3544;BME280;1786;52.870;9.578;2023-06-26T07:55:22;100238.63;;;47.34;25.57
3544;BME280;1786;52.870;9.578;2023-06-26T07:57:49;100249.56;;;47.79;26.82
3544;BME280;1786;52.870;9.578;2023-06-26T08:00:18;100249.53;;;47.92;26.38
3544;BME280;1786;52.870;9.578;2023-06-26T08:02:45;100250.22;;;48.48;25.74
3544;BME280;1786;52.870;9.578;2023-06-26T08:05:12;100246.91;;;48.27;26.38
3544;BME280;1786;52.870;9.578;2023-06-26T08:07:39;100250.41;;;48.40;26.23
3544;BME280;1786;52.870;9.578;2023-06-26T08:10:06;100249.13;;;48.53;26.40
3544;BME280;1786;52.870;9.578;2023-06-26T08:12:32;100246.09;;;48.58;25.77
3544;BME280;1786;52.870;9.578;2023-06-26T08:14:59;100242.66;;;47.89;25.51
3544;BME280;1786;52.870;9.578;2023-06-26T08:17:27;100249.06;;;47.61;26.08
3544;BME280;1786;52.870;9.578;2023-06-26T08:19:56;100247.84;;;47.22;26.47
3544;BME280;1786;52.870;9.578;2023-06-26T08:22:23;100248.28;;;45.92;27.43
3544;BME280;1786;52.870;9.578;2023-06-26T08:24:50;100250.88;;;45.76;27.86
3544;BME280;1786;52.870;9.578;2023-06-26T08:27:16;100252.81;;;45.64;28.38
3544;BME280;1786;52.870;9.578;2023-06-26T08:29:43;100248.28;;;45.50;28.90
3544;BME280;1786;52.870;9.578;2023-06-26T08:32:10;100258.13;;;46.11;28.58
3544;BME280;1786;52.870;9.578;2023-06-26T08:34:37;100269.53;;;46.51;28.03
3544;BME280;1786;52.870;9.578;2023-06-26T08:37:04;100281.22;;;46.78;28.01
3544;BME280;1786;52.870;9.578;2023-06-26T08:39:32;100275.97;;;46.18;28.00
3544;BME280;1786;52.870;9.578;2023-06-26T08:41:59;100291.31;;;45.91;28.23
3544;BME280;1786;52.870;9.578;2023-06-26T08:44:26;100294.38;;;46.32;28.02
3544;BME280;1786;52.870;9.578;2023-06-26T08:46:52;100296.72;;;46.30;28.34
3544;BME280;1786;52.870;9.578;2023-06-26T08:55:10;100291.34;;;45.70;28.86
3544;BME280;1786;52.870;9.578;2023-06-26T08:57:38;100296.88;;;46.00;28.40
3544;BME280;1786;52.870;9.578;2023-06-26T09:00:05;100300.19;;;45.93;28.74
3544;BME280;1786;52.870;9.578;2023-06-26T09:02:36;100303.06;;;46.06;27.92
3544;BME280;1786;52.870;9.578;2023-06-26T09:05:03;100307.56;;;45.77;28.23
3544;BME280;1786;52.870;9.578;2023-06-26T09:07:30;100294.13;;;44.90;29.61
3544;BME280;1786;52.870;9.578;2023-06-26T09:09:56;100298.19;;;44.54;29.54
3544;BME280;1786;52.870;9.578;2023-06-26T09:12:26;100301.63;;;44.60;30.02
3544;BME280;1786;52.870;9.578;2023-06-26T09:14:55;100297.38;;;43.23;30.75
3544;BME280;1786;52.870;9.578;2023-06-26T09:17:30;100298.25;;;42.92;31.21
3544;BME280;1786;52.870;9.578;2023-06-26T09:19:56;100293.69;;;42.65;31.43
3544;BME280;1786;52.870;9.578;2023-06-26T09:22:23;100300.66;;;42.85;31.83
3544;BME280;1786;52.870;9.578;2023-06-26T09:24:51;100312.84;;;43.64;31.74
3544;BME280;1786;52.870;9.578;2023-06-26T09:27:18;100310.44;;;41.84;32.84
3544;BME280;1786;52.870;9.578;2023-06-26T09:29:45;100330.84;;;42.02;33.19
3544;BME280;1786;52.870;9.578;2023-06-26T09:32:13;100325.06;;;40.93;33.47
3544;BME280;1786;52.870;9.578;2023-06-26T09:34:41;100320.34;;;41.48;33.45
3544;BME280;1786;52.870;9.578;2023-06-26T09:37:12;100323.28;;;41.16;34.42
3544;BME280;1786;52.870;9.578;2023-06-26T09:39:40;100328.88;;;41.66;33.67
3544;BME280;1786;52.870;9.578;2023-06-26T09:42:06;100337.94;;;41.30;34.36
3544;BME280;1786;52.870;9.578;2023-06-26T09:44:33;100344.47;;;40.93;34.18
3544;BME280;1786;52.870;9.578;2023-06-26T09:47:02;100351.38;;;40.11;35.02
3544;BME280;1786;52.870;9.578;2023-06-26T09:49:30;100352.50;;;38.70;36.35
3544;BME280;1786;52.870;9.578;2023-06-26T09:52:00;100356.31;;;37.46;39.07
3544;BME280;1786;52.870;9.578;2023-06-26T09:54:27;100374.03;;;36.17;42.79
3544;BME280;1786;52.870;9.578;2023-06-26T09:56:57;100367.75;;;35.48;45.60
3544;BME280;1786;52.870;9.578;2023-06-26T09:59:33;100369.19;;;34.76;46.23
3544;BME280;1786;52.870;9.578;2023-06-26T10:01:59;100374.06;;;34.10;47.37
3544;BME280;1786;52.870;9.578;2023-06-26T10:04:26;100392.56;;;34.52;46.71
3544;BME280;1786;52.870;9.578;2023-06-26T10:06:58;100380.97;;;34.12;46.64
3544;BME280;1786;52.870;9.578;2023-06-26T10:09:25;100378.38;;;34.60;46.57
3544;BME280;1786;52.870;9.578;2023-06-26T10:14:27;100389.72;;;35.06;46.15
3544;BME280;1786;52.870;9.578;2023-06-26T10:16:57;100394.25;;;34.90;46.24
3544;BME280;1786;52.870;9.578;2023-06-26T10:19:26;100386.66;;;34.65;47.36
3544;BME280;1786;52.870;9.578;2023-06-26T10:21:54;100386.53;;;34.82;48.49
3544;BME280;1786;52.870;9.578;2023-06-26T10:24:23;100394.88;;;35.40;47.43
3544;BME280;1786;52.870;9.578;2023-06-26T10:26:52;100393.22;;;35.91;47.89
3544;BME280;1786;52.870;9.578;2023-06-26T10:29:22;100405.81;;;35.82;47.04
3544;BME280;1786;52.870;9.578;2023-06-26T10:31:52;100416.06;;;36.02;46.17
3544;BME280;1786;52.870;9.578;2023-06-26T10:34:21;100413.16;;;36.45;45.50
3544;BME280;1786;52.870;9.578;2023-06-26T10:36:58;100419.81;;;36.90;44.83
3544;BME280;1786;52.870;9.578;2023-06-26T10:39:25;100431.09;;;36.78;44.60
3544;BME280;1786;52.870;9.578;2023-06-26T10:41:54;100432.22;;;36.72;44.36
3544;BME280;1786;52.870;9.578;2023-06-26T10:44:43;100439.88;;;36.49;44.34
3544;BME280;1786;52.870;9.578;2023-06-26T10:47:33;100437.13;;;36.54;44.42
3544;BME280;1786;52.870;9.578;2023-06-26T10:50:22;100439.31;;;37.29;44.47
3544;BME280;1786;52.870;9.578;2023-06-26T10:56:04;100443.84;;;38.40;43.11
3544;BME280;1786;52.870;9.578;2023-06-26T11:03:45;100463.69;;;38.91;40.72
3544;BME280;1786;52.870;9.578;2023-06-26T11:06:14;100479.31;;;39.06;40.29
3544;BME280;1786;52.870;9.578;2023-06-26T11:09:01;100480.59;;;38.35;40.88
3544;BME280;1786;52.870;9.578;2023-06-26T11:14:19;100481.22;;;36.80;42.26
3544;BME280;1786;52.870;9.578;2023-06-26T11:16:46;100474.81;;;36.49;42.10
3544;BME280;1786;52.870;9.578;2023-06-26T11:19:14;100484.69;;;35.71;43.91
3544;BME280;1786;52.870;9.578;2023-06-26T11:21:40;100479.72;;;35.26;44.67
3544;BME280;1786;52.870;9.578;2023-06-26T11:24:08;100469.63;;;35.37;44.39
3544;BME280;1786;52.870;9.578;2023-06-26T11:26:42;100486.00;;;36.11;43.12
3544;BME280;1786;52.870;9.578;2023-06-26T11:29:10;100478.38;;;35.28;42.92
3544;BME280;1786;52.870;9.578;2023-06-26T11:31:39;100478.81;;;35.58;42.71
3544;BME280;1786;52.870;9.578;2023-06-26T11:34:07;100481.53;;;36.05;42.50
3544;BME280;1786;52.870;9.578;2023-06-26T11:36:36;100477.09;;;36.77;41.34
3544;BME280;1786;52.870;9.578;2023-06-26T11:39:05;100483.41;;;36.93;41.70
3544;BME280;1786;52.870;9.578;2023-06-26T11:41:35;100477.09;;;37.18;41.58
3544;BME280;1786;52.870;9.578;2023-06-26T11:44:04;100487.81;;;37.51;41.08
3544;BME280;1786;52.870;9.578;2023-06-26T11:46:33;100486.16;;;37.55;40.89
3544;BME280;1786;52.870;9.578;2023-06-26T11:49:04;100491.63;;;37.75;40.34
3544;BME280;1786;52.870;9.578;2023-06-26T11:51:31;100490.56;;;37.45;40.26
3544;BME280;1786;52.870;9.578;2023-06-26T11:54:01;100481.47;;;37.45;41.34
3544;BME280;1786;52.870;9.578;2023-06-26T11:56:29;100489.34;;;37.98;40.12
3544;BME280;1786;52.870;9.578;2023-06-26T12:01:44;100503.97;;;37.98;39.36
3544;BME280;1786;52.870;9.578;2023-06-26T12:04:16;100498.72;;;37.97;38.88
3544;BME280;1786;52.870;9.578;2023-06-26T12:06:49;100501.41;;;38.12;38.89
3544;BME280;1786;52.870;9.578;2023-06-26T12:09:18;100494.97;;;37.57;37.05
3544;BME280;1786;52.870;9.578;2023-06-26T12:11:47;100488.22;;;36.20;37.72
3544;BME280;1786;52.870;9.578;2023-06-26T12:14:19;100484.38;;;36.21;37.43
3544;BME280;1786;52.870;9.578;2023-06-26T12:16:46;100494.16;;;36.01;36.85
3544;BME280;1786;52.870;9.578;2023-06-26T12:19:13;100482.19;;;35.65;38.28
3544;BME280;1786;52.870;9.578;2023-06-26T12:24:09;100501.22;;;35.77;38.41
3544;BME280;1786;52.870;9.578;2023-06-26T12:26:37;100515.34;;;36.64;37.94
3544;BME280;1786;52.870;9.578;2023-06-26T12:29:09;100517.44;;;36.31;37.76
3544;BME280;1786;52.870;9.578;2023-06-26T12:31:46;100513.56;;;36.27;37.62
3544;BME280;1786;52.870;9.578;2023-06-26T12:34:19;100507.50;;;36.25;37.82
3544;BME280;1786;52.870;9.578;2023-06-26T12:36:50;100512.06;;;36.92;36.55
3544;BME280;1786;52.870;9.578;2023-06-26T12:39:18;100517.78;;;36.55;36.56
3544;BME280;1786;52.870;9.578;2023-06-26T12:41:51;100530.13;;;36.42;36.48
3544;BME280;1786;52.870;9.578;2023-06-26T12:44:25;100530.03;;;36.11;37.36
3544;BME280;1786;52.870;9.578;2023-06-26T12:46:57;100524.94;;;35.93;36.08
3544;BME280;1786;52.870;9.578;2023-06-26T12:49:33;100530.91;;;35.74;35.63
3544;BME280;1786;52.870;9.578;2023-06-26T12:52:04;100532.81;;;35.37;36.56
3544;BME280;1786;52.870;9.578;2023-06-26T12:54:31;100524.25;;;35.65;36.28
3544;BME280;1786;52.870;9.578;2023-06-26T12:56:58;100518.72;;;35.60;36.38
3544;BME280;1786;52.870;9.578;2023-06-26T12:59:25;100516.59;;;35.72;36.20
3544;BME280;1786;52.870;9.578;2023-06-26T13:01:52;100521.00;;;35.36;36.18
3544;BME280;1786;52.870;9.578;2023-06-26T13:04:19;100534.81;;;35.84;36.79
3544;BME280;1786;52.870;9.578;2023-06-26T13:06:45;100531.41;;;37.18;36.74
3544;BME280;1786;52.870;9.578;2023-06-26T13:09:12;100524.19;;;36.91;33.96
3544;BME280;1786;52.870;9.578;2023-06-26T13:11:39;100528.03;;;37.67;33.70
3544;BME280;1786;52.870;9.578;2023-06-26T13:14:06;100524.94;;;37.99;34.57
3544;BME280;1786;52.870;9.578;2023-06-26T13:16:36;100518.28;;;38.60;34.75
3544;BME280;1786;52.870;9.578;2023-06-26T13:19:03;100531.28;;;39.04;33.08
3544;BME280;1786;52.870;9.578;2023-06-26T13:21:30;100524.81;;;39.48;31.79
3544;BME280;1786;52.870;9.578;2023-06-26T13:23:57;100521.31;;;39.03;32.73
3544;BME280;1786;52.870;9.578;2023-06-26T13:26:25;100522.63;;;38.22;31.52
3544;BME280;1786;52.870;9.578;2023-06-26T13:29:03;100519.34;;;38.15;32.72
3544;BME280;1786;52.870;9.578;2023-06-26T13:31:30;100525.38;;;38.27;32.86
3544;BME280;1786;52.870;9.578;2023-06-26T13:33:58;100524.63;;;38.61;32.50
3544;BME280;1786;52.870;9.578;2023-06-26T13:36:25;100526.00;;;38.63;32.97
3544;BME280;1786;52.870;9.578;2023-06-26T13:38:52;100526.53;;;39.10;32.63
3544;BME280;1786;52.870;9.578;2023-06-26T13:41:23;100539.69;;;38.84;31.96
3544;BME280;1786;52.870;9.578;2023-06-26T13:43:51;100537.91;;;39.03;31.98
3544;BME280;1786;52.870;9.578;2023-06-26T13:46:21;100538.25;;;38.52;32.00